createdAt,value
2018-05-07T00:00:59.322Z,3.10
2018-05-07T00:03:26.784Z,3.50
2018-05-07T00:05:54.250Z,3.40
2018-05-07T00:08:21.712Z,3.50
2018-05-07T00:10:49.155Z,3.83
2018-05-07T00:13:16.616Z,3.40
2018-05-07T00:15:44.072Z,3.53
2018-05-07T00:18:11.533Z,4.20
2018-05-07T00:20:39.793Z,3.90
2018-05-07T00:23:07.266Z,3.60
2018-05-07T00:25:34.728Z,3.10
2018-05-07T00:28:02.186Z,3.40
2018-05-07T00:30:29.766Z,3.17
2018-05-07T00:32:57.247Z,3.60
2018-05-07T00:35:25.457Z,3.00
2018-05-07T00:37:52.920Z,2.90
2018-05-07T00:40:20.378Z,3.87
2018-05-07T00:42:47.830Z,4.00
2018-05-07T00:45:15.302Z,3.30
2018-05-07T00:47:42.788Z,3.80
2018-05-07T00:50:11.011Z,4.10
2018-05-07T00:52:38.465Z,4.40
2018-05-07T00:55:17.758Z,4.33
2018-05-07T00:57:45.220Z,3.63
2018-05-07T01:00:13.443Z,3.90
2018-05-07T01:02:40.893Z,4.83
2018-05-07T01:05:08.345Z,4.07
2018-05-07T01:07:35.816Z,3.87
2018-05-07T01:10:03.270Z,3.77
2018-05-07T01:12:31.035Z,3.90
2018-05-07T01:14:58.490Z,3.40
2018-05-07T01:17:25.945Z,3.03
2018-05-07T01:19:53.401Z,3.53
2018-05-07T01:22:20.889Z,4.30
2018-05-07T01:24:48.371Z,3.63
2018-05-07T01:27:15.815Z,3.70
2018-05-07T01:29:44.050Z,3.37
2018-05-07T01:32:11.499Z,4.47
2018-05-07T01:34:38.951Z,3.80
2018-05-07T01:37:06.410Z,3.70
2018-05-07T01:39:33.928Z,4.23
2018-05-07T01:42:01.388Z,3.97
2018-05-07T01:44:28.851Z,4.13
2018-05-07T01:46:56.323Z,4.47
2018-05-07T01:49:23.864Z,3.50
2018-05-07T01:51:51.317Z,4.20
2018-05-07T01:54:18.879Z,3.77
2018-05-07T01:56:46.326Z,3.20
2018-05-07T01:59:13.809Z,3.57
2018-05-07T02:01:41.257Z,4.30
2018-05-07T02:04:08.726Z,4.10
2018-05-07T02:06:36.183Z,4.67
2018-05-07T02:09:03.643Z,4.40
2018-05-07T02:11:31.096Z,3.50
2018-05-07T02:13:58.557Z,4.37
2018-05-07T02:16:27.508Z,4.70
2018-05-07T02:18:54.960Z,4.50
2018-05-07T02:21:22.414Z,4.20
2018-05-07T02:23:49.881Z,3.80
2018-05-07T02:26:17.372Z,4.53
2018-05-07T02:28:44.826Z,3.97
2018-05-07T02:31:13.818Z,4.07
2018-05-07T02:33:41.283Z,3.73
2018-05-07T02:36:08.735Z,3.67
2018-05-07T02:38:36.200Z,4.30
2018-05-07T02:41:03.647Z,4.30
2018-05-07T02:43:31.112Z,4.40
2018-05-07T02:45:58.565Z,3.77
2018-05-07T02:48:26.028Z,4.43
2018-05-07T02:50:53.590Z,4.47
2018-05-07T02:53:21.054Z,4.30
2018-05-07T02:55:48.603Z,4.53
2018-05-07T02:58:16.068Z,4.10
2018-05-07T03:00:43.600Z,4.60
2018-05-07T03:03:11.051Z,5.50
2018-05-07T03:05:38.511Z,4.73
2018-05-07T03:08:05.999Z,5.17
2018-05-07T03:10:33.459Z,4.83
2018-05-07T03:13:00.915Z,3.80
2018-05-07T03:15:28.383Z,5.20
2018-05-07T03:17:55.828Z,4.67
2018-05-07T03:20:23.289Z,4.63
2018-05-07T03:22:50.735Z,5.23
2018-05-07T03:25:18.195Z,4.47
2018-05-07T03:27:45.654Z,4.13
2018-05-07T03:30:13.164Z,4.37
2018-05-07T03:32:40.554Z,4.80
2018-05-07T03:35:08.020Z,4.80
2018-05-07T03:37:35.490Z,3.83
2018-05-07T03:40:02.956Z,5.10
2018-05-07T03:42:30.403Z,5.00
2018-05-07T03:44:57.865Z,4.20
2018-05-07T03:47:25.315Z,4.47
2018-05-07T03:49:52.780Z,4.90
2018-05-07T03:52:20.247Z,5.40
2018-05-07T03:54:47.796Z,4.97
2018-05-07T03:57:15.247Z,4.90
2018-05-07T03:59:42.824Z,5.17
2018-05-07T04:02:10.274Z,5.50
2018-05-07T04:04:37.723Z,5.53
2018-05-07T04:07:05.995Z,4.40
2018-05-07T04:09:33.475Z,5.00
2018-05-07T04:12:01.036Z,4.83
2018-05-07T04:14:28.500Z,5.83
2018-05-07T04:17:04.652Z,5.00
2018-05-07T04:19:44.112Z,6.07
2018-05-07T04:22:23.531Z,5.40
2018-05-07T04:24:50.999Z,5.50
2018-05-07T04:27:18.448Z,6.30
2018-05-07T04:29:45.911Z,5.77
2018-05-07T04:32:13.368Z,7.27
2018-05-07T04:34:40.920Z,6.13
2018-05-07T04:37:08.374Z,6.00
2018-05-07T04:39:35.846Z,4.93
2018-05-07T04:42:03.291Z,5.00
2018-05-07T04:44:30.760Z,5.60
2018-05-07T04:46:58.319Z,5.70
2018-05-07T04:49:25.779Z,5.37
2018-05-07T04:51:53.233Z,6.33
2018-05-07T04:54:20.694Z,6.23
2018-05-07T04:56:48.907Z,6.67
2018-05-07T04:59:16.432Z,5.70
2018-05-07T05:01:43.888Z,5.00
2018-05-07T05:04:11.334Z,5.57
2018-05-07T05:06:38.793Z,5.70
2018-05-07T05:09:06.253Z,6.67
2018-05-07T05:11:33.708Z,6.10
2018-05-07T05:14:01.177Z,6.37
2018-05-07T05:16:28.647Z,7.00
2018-05-07T05:18:56.105Z,7.73
2018-05-07T05:21:23.658Z,6.57
2018-05-07T05:23:51.096Z,7.20
2018-05-07T05:26:18.668Z,7.20
2018-05-07T05:28:46.232Z,7.33
2018-05-07T05:31:13.696Z,7.77
2018-05-07T05:33:41.161Z,8.43
2018-05-07T05:36:08.620Z,9.00
2018-05-07T05:38:36.877Z,8.83
2018-05-07T05:41:04.462Z,8.30
2018-05-07T05:43:31.957Z,8.27
2018-05-07T05:45:59.392Z,9.33
2018-05-07T05:48:27.620Z,6.70
2018-05-07T05:50:55.100Z,7.73
2018-05-07T05:53:22.548Z,6.70
2018-05-07T05:55:50.026Z,6.97
2018-05-07T05:58:17.480Z,7.20
2018-05-07T06:00:45.021Z,7.13
2018-05-07T06:03:12.573Z,7.20
2018-05-07T06:05:40.040Z,6.70
2018-05-07T06:08:07.497Z,6.63
2018-05-07T06:10:35.004Z,6.53
2018-05-07T06:13:03.311Z,6.57
2018-05-07T06:15:30.783Z,7.77
2018-05-07T06:17:58.244Z,6.90
2018-05-07T06:20:25.715Z,6.53
2018-05-07T06:22:53.184Z,7.77
2018-05-07T06:25:20.727Z,6.33
2018-05-07T06:27:48.294Z,6.47
2018-05-07T06:30:15.847Z,7.40
2018-05-07T06:32:43.315Z,6.40
2018-05-07T06:35:10.773Z,6.67
2018-05-07T06:37:38.224Z,6.57
2018-05-07T06:40:05.688Z,7.23
2018-05-07T06:42:33.238Z,6.20
2018-05-07T06:45:00.726Z,7.10
2018-05-07T06:47:28.180Z,5.90
2018-05-07T06:49:55.997Z,6.50
2018-05-07T06:52:23.469Z,6.80
2018-05-07T06:54:50.935Z,6.90
2018-05-07T06:57:18.387Z,6.13
2018-05-07T06:59:45.847Z,6.77
2018-05-07T07:02:13.387Z,5.63
2018-05-07T07:04:40.766Z,6.10
2018-05-07T07:07:08.219Z,6.20
2018-05-07T07:09:35.718Z,5.80
2018-05-07T07:12:03.268Z,5.60
2018-05-07T07:14:31.231Z,5.27
2018-05-07T07:17:00.199Z,4.33
2018-05-07T07:19:27.648Z,4.00
2018-05-07T07:21:55.199Z,5.17
2018-05-07T07:24:22.599Z,4.90
2018-05-07T07:26:50.059Z,5.00
2018-05-07T07:29:18.318Z,5.83
2018-05-07T07:31:45.815Z,5.50
2018-05-07T07:34:13.271Z,5.50
2018-05-07T07:36:40.735Z,5.97
2018-05-07T07:39:08.955Z,3.80
2018-05-07T07:41:36.453Z,5.03
2018-05-07T07:44:03.904Z,4.53
2018-05-07T07:46:31.364Z,3.80
2018-05-07T07:48:58.816Z,4.00
2018-05-07T07:51:26.282Z,3.60
2018-05-07T07:53:53.842Z,4.57
2018-05-07T07:56:21.212Z,3.50
2018-05-07T07:58:48.751Z,3.10
2018-05-07T08:01:16.224Z,3.73
2018-05-07T08:03:43.674Z,4.17
2018-05-07T08:06:11.136Z,4.30
2018-05-07T08:08:38.976Z,3.57
2018-05-07T08:11:06.430Z,4.57
2018-05-07T08:13:33.912Z,4.40
2018-05-07T08:16:01.377Z,3.47
2018-05-07T08:18:28.877Z,3.70
2018-05-07T08:20:56.287Z,3.47
2018-05-07T08:23:23.839Z,4.10
2018-05-07T08:25:51.299Z,3.97
2018-05-07T08:28:18.752Z,3.90
2018-05-07T08:30:46.212Z,3.30
2018-05-07T08:33:13.678Z,3.70
2018-05-07T08:35:41.236Z,3.80
2018-05-07T08:38:08.691Z,3.70
2018-05-07T08:40:36.151Z,4.10
2018-05-07T08:43:03.610Z,5.90
2018-05-07T08:45:31.174Z,3.27
2018-05-07T08:47:58.623Z,3.63
2018-05-07T08:50:26.094Z,3.80
2018-05-07T08:52:53.582Z,3.90
2018-05-07T08:55:21.009Z,3.80
2018-05-07T08:57:48.568Z,4.73
2018-05-07T09:00:16.028Z,4.03
2018-05-07T09:02:43.583Z,3.27
2018-05-07T09:05:11.043Z,3.50
2018-05-07T09:07:38.607Z,2.87
2018-05-07T09:10:06.059Z,2.67
2018-05-07T09:12:33.634Z,3.00
2018-05-07T09:15:01.099Z,2.80
2018-05-07T09:17:28.557Z,2.93
2018-05-07T09:19:56.015Z,2.93
2018-05-07T09:22:23.573Z,2.70
2018-05-07T09:24:51.042Z,2.77
2018-05-07T09:27:18.560Z,3.37
2018-05-07T09:29:46.008Z,2.90
2018-05-07T09:32:13.502Z,2.93
2018-05-07T09:34:40.953Z,2.87
2018-05-07T09:37:08.614Z,3.10
2018-05-07T09:39:36.767Z,2.97
2018-05-07T09:42:04.246Z,2.90
2018-05-07T09:44:31.704Z,2.17
2018-05-07T09:46:59.172Z,2.90
2018-05-07T09:49:26.728Z,3.30
2018-05-07T09:51:54.197Z,3.27
2018-05-07T09:54:21.747Z,2.97
2018-05-07T09:56:55.273Z,2.73
2018-05-07T09:59:22.611Z,3.10
2018-05-07T10:01:50.071Z,2.87
2018-05-07T10:04:17.621Z,3.47
2018-05-07T10:06:45.082Z,3.17
2018-05-07T10:09:12.534Z,2.40
2018-05-07T10:11:40.004Z,3.23
2018-05-07T10:14:07.467Z,3.50
2018-05-07T10:16:34.931Z,2.60
2018-05-07T10:19:02.409Z,3.33
2018-05-07T10:21:30.639Z,3.50
2018-05-07T10:23:58.111Z,3.80
2018-05-07T10:26:25.604Z,3.87
2018-05-07T10:28:53.851Z,2.90
2018-05-07T10:31:21.316Z,2.73
2018-05-07T10:33:48.771Z,3.10
2018-05-07T10:36:16.263Z,2.47
2018-05-07T10:38:44.496Z,3.00
2018-05-07T10:41:12.056Z,2.67
2018-05-07T10:43:39.512Z,2.43
2018-05-07T10:46:06.978Z,3.03
2018-05-07T10:48:34.423Z,3.20
2018-05-07T10:51:01.879Z,3.23
2018-05-07T10:53:29.339Z,3.50
2018-05-07T10:55:56.795Z,2.50
2018-05-07T10:58:24.362Z,3.90
2018-05-07T11:00:51.822Z,3.73
2018-05-07T11:03:19.296Z,3.80
2018-05-07T11:05:46.759Z,2.53
2018-05-07T11:08:14.235Z,2.90
2018-05-07T11:10:42.460Z,3.83
2018-05-07T11:13:09.936Z,2.63
2018-05-07T11:15:37.379Z,3.13
2018-05-07T11:18:04.845Z,3.03
2018-05-07T11:20:32.303Z,2.50
2018-05-07T11:22:59.776Z,2.93
2018-05-07T11:25:27.228Z,2.60
2018-05-07T11:27:54.786Z,3.17
2018-05-07T11:30:22.231Z,3.90
2018-05-07T11:32:49.703Z,3.17
2018-05-07T11:35:17.978Z,3.10
2018-05-07T11:37:45.457Z,2.90
2018-05-07T11:40:13.005Z,3.20
2018-05-07T11:42:40.473Z,3.00
2018-05-07T11:45:08.038Z,2.67
2018-05-07T11:47:35.590Z,2.90
2018-05-07T11:50:03.023Z,2.33
2018-05-07T11:52:30.505Z,2.20
2018-05-07T11:54:58.062Z,2.70
2018-05-07T11:57:25.524Z,3.30
2018-05-07T11:59:52.980Z,2.60
2018-05-07T12:02:20.564Z,2.10
2018-05-07T12:04:48.001Z,2.60
2018-05-07T12:07:15.481Z,2.23
2018-05-07T12:09:43.706Z,3.10
2018-05-07T12:12:11.199Z,2.60
2018-05-07T12:14:38.659Z,2.43
2018-05-07T12:17:06.204Z,2.27
2018-05-07T12:19:33.654Z,2.40
2018-05-07T12:22:01.118Z,2.20
2018-05-07T12:24:28.564Z,2.87
2018-05-07T12:26:56.032Z,2.60
2018-05-07T12:29:23.496Z,2.70
2018-05-07T12:31:51.042Z,2.30
2018-05-07T12:34:18.427Z,2.67
2018-05-07T12:36:45.979Z,2.50
2018-05-07T12:39:13.452Z,4.07
2018-05-07T12:41:40.910Z,2.47
2018-05-07T12:44:08.361Z,2.80
2018-05-07T12:46:35.816Z,2.70
2018-05-07T12:49:03.277Z,2.87
2018-05-07T12:51:30.831Z,1.83
2018-05-07T12:53:58.294Z,2.90
2018-05-07T12:56:25.748Z,2.07
2018-05-07T12:58:53.355Z,2.60
2018-05-07T13:01:21.573Z,2.77
2018-05-07T13:03:49.042Z,2.50
2018-05-07T13:06:16.511Z,2.17
2018-05-07T13:08:44.077Z,2.60
2018-05-07T13:11:11.531Z,2.40
2018-05-07T13:13:39.082Z,3.10
2018-05-07T13:16:06.555Z,2.70
2018-05-07T13:18:34.070Z,3.27
2018-05-07T13:21:01.581Z,2.50
2018-05-07T13:23:29.057Z,3.17
2018-05-07T13:25:57.373Z,2.80
2018-05-07T13:28:24.831Z,3.10
2018-05-07T13:30:52.695Z,2.77
2018-05-07T13:33:20.158Z,2.37
2018-05-07T13:35:47.628Z,3.53
2018-05-07T13:38:15.112Z,2.73
2018-05-07T13:40:42.563Z,3.37
2018-05-07T13:43:10.054Z,3.03
2018-05-07T13:45:37.575Z,2.87
2018-05-07T13:48:05.050Z,2.77
2018-05-07T13:50:32.499Z,2.87
2018-05-07T13:52:59.959Z,2.40
2018-05-07T13:55:27.408Z,2.63
2018-05-07T13:57:54.871Z,2.50
2018-05-07T14:00:22.328Z,3.17
2018-05-07T14:02:49.787Z,2.37
2018-05-07T14:05:17.249Z,2.70
2018-05-07T14:07:44.705Z,2.87
2018-05-07T14:10:12.263Z,2.73
2018-05-07T14:12:39.827Z,2.97
2018-05-07T14:15:07.313Z,3.73
2018-05-07T14:17:34.847Z,3.07
2018-05-07T14:20:02.407Z,2.60
2018-05-07T14:22:29.963Z,2.40
2018-05-07T14:24:57.420Z,2.60
2018-05-07T14:27:24.980Z,3.47
2018-05-07T14:29:52.440Z,2.13
2018-05-07T14:32:20.008Z,2.90
2018-05-07T14:34:47.471Z,2.67
2018-05-07T14:37:14.943Z,2.13
2018-05-07T14:39:43.165Z,2.50
2018-05-07T14:42:10.611Z,1.83
2018-05-07T14:44:38.080Z,2.57
2018-05-07T14:47:05.575Z,2.90
2018-05-07T14:49:33.132Z,1.80
2018-05-07T14:52:00.723Z,2.20
2018-05-07T14:54:28.171Z,2.67
2018-05-07T14:56:55.706Z,2.60
2018-05-07T14:59:23.282Z,2.40
2018-05-07T15:01:50.735Z,1.90
2018-05-07T15:04:18.291Z,1.90
2018-05-07T15:06:45.746Z,2.10
2018-05-07T15:12:07.287Z,1.60
2018-05-07T15:14:34.886Z,1.90
2018-05-07T15:17:03.137Z,1.87
2018-05-07T15:19:30.600Z,2.00
2018-05-07T15:21:58.148Z,2.10
2018-05-07T15:24:25.704Z,2.10
2018-05-07T15:26:53.176Z,2.10
2018-05-07T15:29:20.731Z,2.13
2018-05-07T15:31:48.087Z,2.40
2018-05-07T15:34:15.542Z,3.33
2018-05-07T15:36:42.994Z,2.30
2018-05-07T15:39:10.453Z,2.03
2018-05-07T15:41:38.296Z,1.80
2018-05-07T15:44:05.851Z,1.70
2018-05-07T15:46:33.317Z,2.00
2018-05-07T15:49:00.813Z,1.80
2018-05-07T15:51:28.267Z,1.80
2018-05-07T15:53:55.935Z,2.60
2018-05-07T15:56:23.286Z,1.73
2018-05-07T15:58:50.748Z,1.30
2018-05-07T16:01:18.196Z,1.60
2018-05-07T16:03:45.685Z,1.40
2018-05-07T16:06:13.224Z,1.60
2018-05-07T16:08:41.394Z,1.93
2018-05-07T16:11:08.847Z,1.97
2018-05-07T16:13:36.416Z,1.53
2018-05-07T16:16:03.869Z,1.43
2018-05-07T16:18:31.327Z,1.67
2018-05-07T16:20:58.779Z,2.03
2018-05-07T16:23:26.524Z,2.87
2018-05-07T16:25:53.809Z,1.77
2018-05-07T16:28:21.360Z,1.90
2018-05-07T16:30:48.730Z,1.53
2018-05-07T16:33:16.182Z,1.27
2018-05-07T16:35:43.704Z,1.60
2018-05-07T16:38:11.108Z,1.63
2018-05-07T16:40:38.674Z,1.37
2018-05-07T16:43:06.130Z,1.47
2018-05-07T16:45:33.605Z,1.53
2018-05-07T16:48:01.067Z,1.90
2018-05-07T16:50:29.314Z,1.27
2018-05-07T16:52:56.783Z,2.30
2018-05-07T16:55:24.331Z,2.00
2018-05-07T16:57:51.783Z,2.20
2018-05-07T17:00:19.253Z,1.90
2018-05-07T17:02:46.707Z,1.70
2018-05-07T17:05:14.168Z,1.70
2018-05-07T17:07:41.625Z,1.80
2018-05-07T17:10:09.104Z,1.57
2018-05-07T17:12:36.656Z,1.50
2018-05-07T17:15:04.121Z,1.70
2018-05-07T17:17:33.102Z,1.40
2018-05-07T17:20:00.559Z,1.47
2018-05-07T17:22:28.124Z,1.40
2018-05-07T17:24:55.860Z,1.40
2018-05-07T17:27:23.317Z,1.53
2018-05-07T17:29:50.798Z,1.50
2018-05-07T17:32:18.263Z,1.50
2018-05-07T17:34:45.731Z,1.20
2018-05-07T17:37:14.691Z,1.60
2018-05-07T17:39:42.527Z,1.87
2018-05-07T17:42:10.739Z,1.77
2018-05-07T17:44:49.988Z,1.60
2018-05-07T17:47:29.691Z,2.03
2018-05-07T17:49:57.179Z,1.70
2018-05-07T17:52:24.636Z,1.80
2018-05-07T17:54:52.109Z,1.73
2018-05-07T17:57:19.570Z,1.40
2018-05-07T17:59:47.127Z,2.27
2018-05-07T18:02:14.591Z,1.97
2018-05-07T18:04:42.053Z,1.77
2018-05-07T18:07:09.502Z,2.30
2018-05-07T18:09:36.971Z,2.40
2018-05-07T18:12:04.421Z,1.60
2018-05-07T18:14:31.893Z,1.63
2018-05-07T18:16:59.366Z,1.97
2018-05-07T18:19:27.626Z,2.00
2018-05-07T18:21:55.079Z,1.53
2018-05-07T18:24:22.545Z,1.43
2018-05-07T18:26:49.999Z,1.80
2018-05-07T18:29:17.475Z,1.50
2018-05-07T18:31:45.039Z,2.20
2018-05-07T18:34:13.267Z,1.73
2018-05-07T18:36:40.719Z,1.80
2018-05-07T18:39:08.188Z,1.70
2018-05-07T18:41:35.645Z,1.53
2018-05-07T18:44:03.125Z,1.70
2018-05-07T18:46:30.582Z,1.50
2018-05-07T18:48:58.055Z,1.90
2018-05-07T18:51:25.528Z,1.90
2018-05-07T18:53:53.747Z,2.03
2018-05-07T18:56:21.216Z,1.83
2018-05-07T18:58:48.674Z,1.70
2018-05-07T19:01:16.132Z,1.80
2018-05-07T19:03:43.880Z,2.20
2018-05-07T19:06:11.379Z,1.80
2018-05-07T19:08:38.839Z,1.90
2018-05-07T19:11:07.388Z,1.90
2018-05-07T19:13:35.250Z,1.90
2018-05-07T19:16:02.707Z,2.50
2018-05-07T19:18:30.203Z,2.10
2018-05-07T19:20:57.690Z,1.93
2018-05-07T19:23:25.151Z,2.33
2018-05-07T19:25:53.402Z,1.90
2018-05-07T19:28:20.851Z,1.73
2018-05-07T19:30:48.320Z,1.57
2018-05-07T19:33:15.775Z,2.50
2018-05-07T19:35:43.237Z,1.63
2018-05-07T19:38:10.694Z,2.03
2018-05-07T19:40:38.162Z,1.77
2018-05-07T19:43:05.711Z,2.33
2018-05-07T19:45:33.171Z,2.10
2018-05-07T19:48:00.639Z,2.07
2018-05-07T19:50:28.186Z,2.03
2018-05-07T19:52:55.651Z,2.60
2018-05-07T19:55:23.110Z,2.70
2018-05-07T19:57:50.580Z,2.60
2018-05-07T20:00:18.045Z,1.97
2018-05-07T20:02:46.259Z,2.80
2018-05-07T20:05:13.731Z,2.10
2018-05-07T20:07:41.190Z,2.00
2018-05-07T20:10:08.662Z,2.00
2018-05-07T20:12:36.132Z,1.93
2018-05-07T20:15:03.577Z,1.83
2018-05-07T20:17:31.033Z,2.40
2018-05-07T20:19:58.504Z,1.90
2018-05-07T20:22:26.077Z,2.40
2018-05-07T20:24:53.584Z,2.30
2018-05-07T20:27:21.084Z,2.57
2018-05-07T20:29:48.556Z,2.63
2018-05-07T20:32:16.007Z,2.60
2018-05-07T20:34:43.553Z,2.67
2018-05-07T20:37:11.012Z,2.70
2018-05-07T20:39:38.471Z,2.80
2018-05-07T20:42:05.939Z,2.40
2018-05-07T20:44:33.388Z,2.80
2018-05-07T20:47:00.855Z,2.10
2018-05-07T20:49:28.316Z,3.27
2018-05-07T20:51:55.808Z,2.40
2018-05-07T20:54:23.271Z,2.93
2018-05-07T20:56:50.785Z,2.60
2018-05-07T20:59:18.325Z,2.70
2018-05-07T21:01:45.710Z,3.97
2018-05-07T21:04:13.975Z,3.70
2018-05-07T21:06:41.439Z,3.93
2018-05-07T21:09:09.727Z,2.97
2018-05-07T21:11:37.196Z,3.90
2018-05-07T21:14:05.422Z,5.27
2018-05-07T21:16:32.879Z,5.10
2018-05-07T21:19:00.332Z,6.00
2018-05-07T21:21:27.795Z,3.60
2018-05-07T21:23:55.267Z,5.30
2018-05-07T21:26:22.733Z,3.40
2018-05-07T21:28:50.291Z,3.50
2018-05-07T21:31:17.753Z,3.50
2018-05-07T21:33:45.203Z,3.47
2018-05-07T21:36:12.667Z,2.97
2018-05-07T21:38:40.134Z,3.37
2018-05-07T21:41:07.591Z,3.17
2018-05-07T21:43:35.103Z,3.70
2018-05-07T21:46:02.517Z,3.20
2018-05-07T21:48:30.070Z,3.57
2018-05-07T21:50:57.526Z,2.77
2018-05-07T21:53:24.979Z,3.50
2018-05-07T21:55:52.440Z,3.20
2018-05-07T22:01:12.837Z,3.53
2018-05-07T22:03:40.308Z,2.77
2018-05-07T22:06:07.775Z,3.47
2018-05-07T22:08:35.231Z,2.63
2018-05-07T22:11:02.697Z,3.13
2018-05-07T22:13:31.663Z,2.60
2018-05-07T22:15:59.126Z,3.57
2018-05-07T22:18:26.603Z,2.80
2018-05-07T22:20:54.432Z,2.60
2018-05-07T22:23:21.922Z,2.93
2018-05-07T22:25:49.384Z,2.53
2018-05-07T22:28:16.855Z,3.30
2018-05-07T22:30:45.839Z,2.90
2018-05-07T22:33:13.287Z,3.10
2018-05-07T22:35:40.848Z,3.07
2018-05-07T22:38:08.331Z,3.07
2018-05-07T22:40:36.559Z,3.10
2018-05-07T22:43:04.011Z,2.07
2018-05-07T22:45:31.472Z,2.23
2018-05-07T22:47:58.934Z,3.37
2018-05-07T22:50:26.484Z,3.50
2018-05-07T22:52:54.696Z,3.33
2018-05-07T22:55:22.159Z,2.97
2018-05-07T22:57:49.619Z,3.03
2018-05-07T23:00:17.076Z,3.00
2018-05-07T23:02:45.229Z,2.30
2018-05-07T23:05:12.682Z,2.80
2018-05-07T23:07:40.171Z,2.77
2018-05-07T23:10:07.716Z,3.30
2018-05-07T23:12:35.180Z,3.27
2018-05-07T23:15:02.741Z,3.23
2018-05-07T23:17:30.254Z,2.93
2018-05-07T23:19:57.695Z,2.80
2018-05-07T23:22:25.940Z,2.83
2018-05-07T23:24:53.490Z,2.60
2018-05-07T23:27:20.943Z,2.97
2018-05-07T23:29:48.407Z,3.13
2018-05-07T23:32:15.864Z,2.97
2018-05-07T23:34:43.318Z,3.00
2018-05-07T23:37:10.779Z,3.07
2018-05-07T23:39:38.234Z,2.73
2018-05-07T23:42:05.700Z,3.20
2018-05-07T23:44:33.187Z,3.27
2018-05-07T23:47:01.419Z,3.10
2018-05-07T23:49:28.896Z,3.13
2018-05-07T23:51:56.351Z,2.60
2018-05-07T23:54:23.819Z,3.90
2018-05-07T23:56:52.799Z,3.23
2018-05-07T23:59:20.277Z,3.33
